Time;durP1;ratioP1;P1;durP2;ratioP2;P2;SDS_P1;SDS_P2;PMS_P1;PMS_P2;Temp;Humidity;BMP_temperature;BMP_pressure;BME280_temperature;BME280_humidity;BME280_pressure;Samples;Min_cycle;Max_cycle;Signal;HPM_P1;HPM_P2
2023/01/10 00:01:10;;;;;;;12.85;7.85;;;23.50;49.40;;;;;;6057770;28;82286;-67
2023/01/10 00:04:11;;;;;;;12.40;8.43;;;23.50;49.40;;;;;;6071858;28;80638;-67
2023/01/10 00:07:11;;;;;;;11.20;8.02;;;23.50;49.30;;;;;;6078939;28;82600;-55
2023/01/10 00:10:13;;;;;;;12.80;8.65;;;23.50;49.40;;;;;;6080944;28;80692;-57
2023/01/10 00:13:22;;;;;;;15.02;9.30;;;23.50;49.40;;;;;;6083002;28;81486;-57
2023/01/10 00:16:22;;;;;;;11.65;8.15;;;23.50;49.40;;;;;;6080153;28;81040;-57
2023/01/10 00:19:23;;;;;;;13.68;8.48;;;23.50;49.40;;;;;;6079140;28;81799;-55
2023/01/10 00:22:24;;;;;;;11.50;8.05;;;23.50;49.50;;;;;;6061755;28;81386;-56
2023/01/10 00:25:25;;;;;;;11.88;8.50;;;23.50;49.50;;;;;;6060791;28;80529;-65
2023/01/10 00:28:26;;;;;;;11.77;8.05;;;23.50;49.60;;;;;;6065996;28;80665;-65
2023/01/10 00:31:26;;;;;;;13.32;8.07;;;23.50;49.40;;;;;;6057212;28;81219;-67
2023/01/10 00:34:27;;;;;;;13.70;8.57;;;23.50;49.60;;;;;;6058122;28;80941;-65
2023/01/10 00:37:27;;;;;;;10.70;7.45;;;23.50;49.60;;;;;;6057006;28;80978;-66
2023/01/10 00:40:28;;;;;;;12.40;8.23;;;23.50;49.50;;;;;;6056804;28;80791;-65
2023/01/10 00:46:47;;;;;;;8.93;6.63;;;23.50;49.60;;;;;;6078571;28;80733;-67
2023/01/10 00:49:48;;;;;;;14.57;7.97;;;23.50;49.40;;;;;;6070799;28;81213;-68
2023/01/10 00:52:48;;;;;;;14.13;8.43;;;23.50;49.30;;;;;;6067847;28;81349;-67
2023/01/10 00:55:49;;;;;;;11.35;7.85;;;23.50;49.30;;;;;;6063962;28;80478;-67
2023/01/10 00:58:49;;;;;;;9.40;7.05;;;23.50;49.30;;;;;;6068390;28;80485;-67
2023/01/10 01:01:50;;;;;;;11.30;7.18;;;23.50;49.20;;;;;;6065794;28;80620;-67
2023/01/10 01:04:50;;;;;;;11.60;7.20;;;23.50;49.20;;;;;;6078678;28;80807;-64
2023/01/10 01:07:51;;;;;;;8.77;6.07;;;23.50;49.20;;;;;;6085080;28;80488;-65
2023/01/10 01:10:52;;;;;;;9.43;6.72;;;23.50;49.30;;;;;;6095642;28;81001;-65
2023/01/10 01:13:52;;;;;;;9.93;6.72;;;23.50;49.20;;;;;;6077505;28;80787;-65
2023/01/10 01:16:53;;;;;;;10.40;7.57;;;23.50;49.00;;;;;;6065977;28;83669;-67
2023/01/10 01:19:53;;;;;;;8.88;6.45;;;23.50;49.10;;;;;;6079716;28;80557;-61
2023/01/10 01:22:54;;;;;;;9.18;6.82;;;23.50;49.00;;;;;;6072006;28;80266;-62
2023/01/10 01:25:54;;;;;;;8.88;6.57;;;23.40;48.90;;;;;;6072520;28;80123;-61
2023/01/10 01:28:55;;;;;;;10.90;7.43;;;23.50;49.70;;;;;;6065365;28;81033;-61
2023/01/10 01:31:56;;;;;;;10.63;6.85;;;23.50;49.00;;;;;;6079174;28;80593;-62
2023/01/10 01:34:56;;;;;;;10.38;6.45;;;23.50;49.00;;;;;;6080985;28;81168;-62
2023/01/10 01:37:57;;;;;;;10.30;7.25;;;23.50;48.90;;;;;;6059425;28;81072;-60
2023/01/10 01:40:57;;;;;;;9.80;7.18;;;23.50;48.90;;;;;;6067526;28;80993;-59
2023/01/10 01:43:58;;;;;;;10.55;6.68;;;23.50;48.90;;;;;;6071518;28;87669;-61
2023/01/10 01:46:58;;;;;;;8.90;6.53;;;23.50;48.90;;;;;;6070175;28;81173;-61
2023/01/10 01:49:59;;;;;;;8.73;6.20;;;23.40;48.90;;;;;;6067457;28;80592;-60
2023/01/10 01:52:59;;;;;;;11.15;6.68;;;23.40;48.80;;;;;;6075291;28;80170;-61
2023/01/10 01:56:00;;;;;;;9.95;6.90;;;23.40;48.80;;;;;;6064907;28;81064;-62
2023/01/10 01:59:00;;;;;;;9.07;6.40;;;23.50;48.80;;;;;;6058791;28;80203;-62
2023/01/10 02:02:01;;;;;;;9.63;6.32;;;23.40;49.00;;;;;;6065258;28;80325;-62
2023/01/10 02:05:01;;;;;;;12.57;7.80;;;23.40;49.10;;;;;;6061509;28;80434;-61
2023/01/10 02:08:02;;;;;;;15.05;5.32;;;23.40;49.30;;;;;;6065526;28;80662;-63
2023/01/10 02:11:02;;;;;;;7.18;5.57;;;23.50;49.40;;;;;;6080639;28;80255;-65
2023/01/10 02:14:03;;;;;;;8.25;6.25;;;23.40;49.20;;;;;;6068523;28;81616;-63
2023/01/10 02:17:03;;;;;;;9.13;6.25;;;23.40;49.30;;;;;;6068104;28;80497;-70
2023/01/10 02:20:04;;;;;;;6.30;5.45;;;23.40;49.30;;;;;;6069445;28;82310;-70
2023/01/10 02:23:04;;;;;;;8.32;5.78;;;23.50;49.70;;;;;;6076271;28;81793;-66
2023/01/10 02:26:05;;;;;;;8.43;5.90;;;23.40;49.60;;;;;;6075737;28;80570;-68
2023/01/10 02:29:05;;;;;;;9.80;6.07;;;23.50;49.70;;;;;;6068743;28;80483;-70
2023/01/10 02:32:06;;;;;;;8.43;5.75;;;23.50;49.80;;;;;;6082041;28;80318;-68
2023/01/10 02:35:07;;;;;;;7.72;5.32;;;23.40;50.00;;;;;;6080976;28;80890;-63
2023/01/10 02:38:07;;;;;;;8.25;5.78;;;23.40;49.80;;;;;;6083597;28;80989;-63
2023/01/10 02:41:08;;;;;;;7.43;5.18;;;23.40;49.50;;;;;;6087293;28;80487;-63
2023/01/10 02:44:08;;;;;;;7.80;5.35;;;23.40;49.50;;;;;;6080356;28;80184;-63
2023/01/10 02:47:09;;;;;;;9.00;5.00;;;23.50;49.50;;;;;;6077312;28;81070;-62
2023/01/10 02:50:09;;;;;;;11.40;5.70;;;23.40;49.30;;;;;;6081956;28;81103;-63
2023/01/10 02:53:10;;;;;;;7.90;5.65;;;23.40;49.10;;;;;;6083501;28;80416;-63
2023/01/10 02:56:10;;;;;;;7.55;5.28;;;23.40;49.00;;;;;;6079209;28;80264;-62
2023/01/10 02:59:11;;;;;;;6.40;5.30;;;23.40;49.00;;;;;;6080184;28;80895;-62
2023/01/10 03:02:11;;;;;;;6.65;4.88;;;23.40;49.10;;;;;;6082053;28;80422;-63
2023/01/10 03:05:12;;;;;;;7.70;4.72;;;23.40;48.80;;;;;;6090537;28;80527;-62
2023/01/10 03:08:12;;;;;;;6.40;4.88;;;23.40;48.80;;;;;;6074437;28;80337;-62
2023/01/10 03:11:13;;;;;;;9.43;4.90;;;23.40;48.70;;;;;;6062705;28;80524;-64
2023/01/10 03:14:13;;;;;;;9.52;5.35;;;23.40;48.70;;;;;;6063353;28;80514;-63
2023/01/10 03:17:14;;;;;;;7.95;4.97;;;23.40;48.70;;;;;;6069741;28;80441;-64
2023/01/10 03:20:15;;;;;;;7.65;5.55;;;23.40;48.70;;;;;;6059053;28;80897;-63
2023/01/10 03:23:15;;;;;;;7.28;5.43;;;23.40;48.70;;;;;;6062869;28;82603;-62
2023/01/10 03:26:16;;;;;;;8.13;5.22;;;23.40;48.60;;;;;;6069572;28;80516;-63
2023/01/10 03:29:16;;;;;;;7.97;5.30;;;23.40;48.60;;;;;;6058347;28;80742;-63
2023/01/10 03:32:17;;;;;;;7.55;5.47;;;23.40;48.60;;;;;;6062055;28;80401;-64
2023/01/10 03:35:17;;;;;;;7.82;5.07;;;23.40;48.70;;;;;;6061226;28;80960;-64
2023/01/10 03:38:18;;;;;;;11.43;5.15;;;23.40;48.60;;;;;;6059128;28;82142;-64
2023/01/10 03:41:18;;;;;;;9.23;4.90;;;23.40;48.60;;;;;;6075064;28;81343;-64
2023/01/10 03:47:39;;;;;;;7.65;5.45;;;23.40;48.50;;;;;;6059261;28;80971;-64
2023/01/10 03:50:40;;;;;;;6.82;4.72;;;23.40;48.40;;;;;;6062260;28;80956;-63
2023/01/10 03:53:40;;;;;;;7.30;4.68;;;23.40;48.40;;;;;;6070163;28;81221;-64
2023/01/10 03:56:41;;;;;;;7.43;5.80;;;23.30;48.50;;;;;;6071923;28;80662;-64
2023/01/10 03:59:41;;;;;;;7.05;4.80;;;23.30;48.50;;;;;;6064968;28;80668;-63
2023/01/10 04:02:43;;;;;;;9.23;5.35;;;23.30;48.50;;;;;;6076794;28;83092;-64
2023/01/10 04:05:43;;;;;;;9.50;5.90;;;23.40;48.50;;;;;;6083247;28;85408;-65
2023/01/10 04:08:44;;;;;;;8.10;5.30;;;23.30;48.50;;;;;;6102988;28;80637;-64
2023/01/10 04:11:44;;;;;;;7.72;4.72;;;23.30;49.40;;;;;;6090208;28;80586;-61
2023/01/10 04:14:46;;;;;;;8.07;4.60;;;23.40;49.40;;;;;;6082460;28;80985;-61
2023/01/10 04:17:47;;;;;;;7.55;4.95;;;23.40;49.10;;;;;;6080860;28;80519;-62
2023/01/10 04:20:47;;;;;;;7.60;4.70;;;23.40;48.80;;;;;;6093562;28;80922;-62
2023/01/10 04:23:48;;;;;;;6.45;4.60;;;23.50;48.70;;;;;;6086778;28;87238;-56
2023/01/10 04:26:48;;;;;;;5.93;4.50;;;23.50;48.70;;;;;;6096662;28;80250;-56
2023/01/10 04:29:49;;;;;;;7.07;4.85;;;23.50;48.50;;;;;;6079030;28;82637;-56
2023/01/10 04:32:49;;;;;;;6.18;4.55;;;23.60;48.50;;;;;;6080017;28;80746;-56
2023/01/10 04:35:50;;;;;;;6.07;4.15;;;23.60;48.20;;;;;;6080615;28;80421;-56
2023/01/10 04:38:50;;;;;;;6.65;4.00;;;23.60;48.00;;;;;;6061849;28;80621;-59
2023/01/10 04:41:51;;;;;;;5.15;4.22;;;23.70;47.90;;;;;;6063805;28;80508;-58
2023/01/10 04:44:51;;;;;;;4.82;3.72;;;23.70;48.10;;;;;;6055771;28;81184;-58
2023/01/10 04:47:54;;;;;;;6.00;3.95;;;23.70;48.10;;;;;;6054916;28;80332;-58
2023/01/10 04:50:55;;;;;;;4.75;3.78;;;23.70;48.10;;;;;;6062017;28;80617;-58
2023/01/10 04:53:56;;;;;;;5.32;3.80;;;23.70;48.20;;;;;;6058243;28;80927;-59
2023/01/10 04:56:56;;;;;;;5.20;3.50;;;23.80;48.40;;;;;;6066446;28;82477;-57
2023/01/10 04:59:57;;;;;;;4.63;3.58;;;23.80;48.80;;;;;;6055405;28;82709;-56
2023/01/10 05:02:57;;;;;;;5.28;3.72;;;23.80;48.60;;;;;;6063206;28;80651;-65
2023/01/10 05:05:58;;;;;;;5.57;3.22;;;23.80;48.50;;;;;;6062345;28;81667;-64
2023/01/10 05:08:58;;;;;;;4.22;2.83;;;23.80;48.70;;;;;;6059169;28;80929;-67
2023/01/10 05:11:59;;;;;;;6.13;3.38;;;23.90;48.70;;;;;;6071076;28;80406;-68
2023/01/10 05:14:59;;;;;;;10.63;3.42;;;23.90;48.80;;;;;;6079598;28;80836;-67
2023/01/10 05:18:00;;;;;;;4.60;3.00;;;23.90;49.00;;;;;;6065839;28;80911;-66
2023/01/10 05:21:00;;;;;;;6.47;3.00;;;23.90;49.40;;;;;;6072209;28;80580;-58
2023/01/10 05:24:01;;;;;;;4.47;3.28;;;23.90;49.20;;;;;;6066735;28;80691;-53
2023/01/10 05:27:02;;;;;;;7.10;3.28;;;24.00;49.10;;;;;;6070762;28;82618;-57
2023/01/10 05:30:02;;;;;;;4.80;2.55;;;23.90;49.20;;;;;;6059102;28;80661;-67
2023/01/10 05:33:03;;;;;;;4.68;3.13;;;24.00;49.00;;;;;;6041413;28;81807;-55
2023/01/10 05:36:03;;;;;;;4.68;2.70;;;24.00;48.90;;;;;;6070190;28;80952;-57
2023/01/10 05:39:04;;;;;;;5.93;2.55;;;24.00;49.30;;;;;;6078503;28;81093;-57
2023/01/10 05:42:04;;;;;;;2.38;2.10;;;24.00;49.70;;;;;;6080010;28;81015;-57
2023/01/10 05:45:05;;;;;;;4.70;2.47;;;24.00;49.50;;;;;;6096904;28;80468;-54
2023/01/10 05:48:05;;;;;;;4.22;2.20;;;24.00;49.50;;;;;;6097130;28;80947;-54
2023/01/10 05:51:06;;;;;;;3.03;2.45;;;24.00;49.20;;;;;;6076185;28;87166;-57
2023/01/10 05:54:07;;;;;;;4.55;2.80;;;24.00;49.20;;;;;;6091538;28;81055;-56
2023/01/10 05:57:07;;;;;;;3.10;2.47;;;24.00;49.10;;;;;;6101012;28;80781;-58
2023/01/10 06:00:08;;;;;;;3.83;2.10;;;24.00;49.10;;;;;;6086899;28;80448;-57
2023/01/10 06:03:14;;;;;;;4.85;2.03;;;24.00;49.00;;;;;;6072819;28;80765;-57
2023/01/10 06:06:14;;;;;;;6.00;2.50;;;24.00;48.90;;;;;;6063804;28;84910;-61
2023/01/10 06:09:15;;;;;;;3.65;2.58;;;24.00;48.90;;;;;;6081310;28;81062;-56
2023/01/10 06:12:17;;;;;;;3.53;2.40;;;24.00;48.60;;;;;;6080695;28;81956;-57
2023/01/10 06:15:18;;;;;;;6.45;2.50;;;24.00;49.40;;;;;;6087521;28;80804;-56
2023/01/10 06:18:18;;;;;;;6.35;2.47;;;23.90;49.10;;;;;;6092165;28;83523;-56
2023/01/10 06:21:19;;;;;;;3.50;2.20;;;23.90;49.00;;;;;;6088317;28;81173;-57
2023/01/10 06:24:19;;;;;;;3.45;2.58;;;23.90;49.30;;;;;;6086083;28;80931;-55
2023/01/10 06:27:20;;;;;;;5.75;2.15;;;23.90;49.40;;;;;;6096184;28;81527;-57
2023/01/10 06:30:20;;;;;;;4.05;2.60;;;23.90;49.90;;;;;;6084025;28;80852;-58
2023/01/10 06:33:21;;;;;;;3.30;2.30;;;23.90;49.60;;;;;;6080067;28;82462;-58
2023/01/10 06:36:21;;;;;;;2.80;2.00;;;23.90;50.30;;;;;;6083942;28;80871;-57
2023/01/10 06:39:22;;;;;;;3.10;1.92;;;23.90;50.50;;;;;;6086608;28;80536;-58
2023/01/10 06:42:22;;;;;;;4.53;2.35;;;23.80;50.30;;;;;;6090926;28;80746;-54
2023/01/10 06:45:23;;;;;;;3.42;2.45;;;23.80;49.90;;;;;;6102555;28;81631;-56
2023/01/10 06:48:24;;;;;;;4.40;2.30;;;23.80;49.80;;;;;;6080076;28;84665;-58
2023/01/10 06:51:24;;;;;;;4.07;2.10;;;23.80;49.70;;;;;;6097758;28;81233;-62
2023/01/10 06:54:25;;;;;;;3.30;1.85;;;23.80;49.70;;;;;;6099987;28;80674;-62
2023/01/10 06:57:27;;;;;;;5.30;2.30;;;23.70;50.00;;;;;;6094678;28;80416;-63
2023/01/10 07:00:27;;;;;;;4.10;2.20;;;23.70;49.80;;;;;;6061457;28;80842;-62
2023/01/10 07:03:28;;;;;;;5.63;2.10;;;23.70;49.90;;;;;;6086742;28;82918;-62
2023/01/10 07:06:28;;;;;;;4.45;1.88;;;23.70;49.80;;;;;;6069727;28;80662;-63
2023/01/10 07:09:29;;;;;;;4.07;2.08;;;23.70;49.70;;;;;;6066082;28;82189;-63
2023/01/10 07:12:29;;;;;;;5.35;2.05;;;23.70;50.00;;;;;;6071627;28;80917;-61
2023/01/10 07:15:30;;;;;;;3.08;1.88;;;23.70;49.90;;;;;;6058157;28;81088;-63
2023/01/10 07:18:31;;;;;;;3.35;2.08;;;23.60;50.10;;;;;;6076914;28;82356;-63
2023/01/10 07:21:31;;;;;;;3.53;2.28;;;23.70;50.10;;;;;;6050545;28;83154;-63
2023/01/10 07:24:33;;;;;;;2.83;2.08;;;23.70;50.00;;;;;;6075855;28;80392;-65
2023/01/10 07:27:33;;;;;;;5.68;2.22;;;23.70;50.10;;;;;;6070829;28;80526;-59
2023/01/10 07:30:34;;;;;;;4.22;1.90;;;23.70;50.40;;;;;;6086626;28;80934;-62
2023/01/10 07:33:35;;;;;;;3.08;2.03;;;23.70;50.00;;;;;;6050943;28;83724;-61
2023/01/10 07:36:36;;;;;;;5.95;2.45;;;23.60;50.50;;;;;;6051960;28;80447;-60
2023/01/10 07:39:36;;;;;;;2.40;1.70;;;23.70;50.60;;;;;;6050970;28;85865;-60
2023/01/10 07:42:37;;;;;;;11.00;2.30;;;23.70;50.30;;;;;;6057238;28;85415;-61
2023/01/10 07:45:37;;;;;;;4.40;2.42;;;23.60;50.20;;;;;;6065378;28;84207;-59
2023/01/10 07:48:40;;;;;;;7.80;2.78;;;23.70;50.50;;;;;;6064194;28;80604;-58
2023/01/10 07:51:41;;;;;;;18.70;4.07;;;23.60;50.30;;;;;;6061935;28;81000;-56
2023/01/10 07:54:41;;;;;;;10.32;3.55;;;23.60;50.50;;;;;;6063564;28;83144;-56
2023/01/10 07:57:42;;;;;;;5.88;2.72;;;23.60;50.30;;;;;;6062468;28;80664;-56
2023/01/10 08:00:42;;;;;;;10.95;2.53;;;23.60;50.20;;;;;;5981548;28;83930;-56
2023/01/10 08:03:43;;;;;;;7.90;2.60;;;23.60;50.10;;;;;;6037366;28;81452;-55
2023/01/10 08:06:43;;;;;;;5.18;2.40;;;23.60;49.70;;;;;;6084652;28;80409;-68
2023/01/10 08:09:44;;;;;;;5.60;2.20;;;23.50;49.50;;;;;;6081680;28;80439;-67
2023/01/10 08:12:47;;;;;;;7.10;2.78;;;23.50;49.30;;;;;;6090071;28;81202;-67
2023/01/10 08:15:49;;;;;;;5.68;2.50;;;23.50;49.20;;;;;;6072402;28;80627;-68
2023/01/10 08:18:49;;;;;;;8.25;2.15;;;23.50;49.10;;;;;;6064523;28;81232;-67
2023/01/10 08:21:50;;;;;;;5.78;2.00;;;23.50;48.80;;;;;;6065925;28;80418;-69
2023/01/10 08:24:50;;;;;;;4.88;2.63;;;23.50;48.80;;;;;;6052805;28;81885;-59
2023/01/10 08:27:51;;;;;;;3.30;1.85;;;23.50;48.80;;;;;;6082469;28;81943;-60
2023/01/10 08:30:54;;;;;;;5.68;2.30;;;23.50;49.00;;;;;;6095256;28;80608;-59
2023/01/10 08:33:55;;;;;;;4.68;2.00;;;23.50;48.90;;;;;;6097993;28;81141;-59
2023/01/10 08:36:56;;;;;;;6.78;2.75;;;23.50;49.30;;;;;;6087689;28;82186;-60
2023/01/10 08:39:56;;;;;;;4.32;2.10;;;23.50;49.70;;;;;;6085865;28;81064;-61
2023/01/10 08:42:57;;;;;;;9.23;2.03;;;23.50;49.60;;;;;;6087441;28;80354;-73
2023/01/10 08:45:57;;;;;;;5.07;2.28;;;23.50;49.50;;;;;;6095867;28;80895;-68
2023/01/10 08:48:58;;;;;;;5.47;3.05;;;23.50;49.40;;;;;;6100196;28;81333;-70
2023/01/10 08:51:58;;;;;;;11.48;4.15;;;23.50;49.50;;;;;;6080113;28;80572;-69
2023/01/10 08:54:59;;;;;;;8.00;3.63;;;23.50;49.60;;;;;;6090014;28;80488;-71
2023/01/10 08:58:00;;;;;;;7.13;3.42;;;23.50;49.80;;;;;;6090321;28;81912;-71
2023/01/10 09:01:00;;;;;;;6.80;3.47;;;23.50;49.50;;;;;;6075076;28;81772;-61
2023/01/10 09:04:01;;;;;;;7.07;3.33;;;23.50;49.40;;;;;;6081893;28;82738;-61
2023/01/10 09:07:01;;;;;;;5.90;3.28;;;23.50;49.30;;;;;;6064562;28;83114;-61
2023/01/10 09:10:02;;;;;;;6.50;3.53;;;23.50;49.30;;;;;;6061506;28;85647;-61
2023/01/10 09:13:03;;;;;;;7.60;2.88;;;23.50;49.20;;;;;;6059632;28;84286;-60
2023/01/10 09:16:04;;;;;;;4.75;2.80;;;23.50;49.10;;;;;;6064646;28;80795;-59
2023/01/10 09:19:04;;;;;;;6.95;3.22;;;23.50;48.90;;;;;;6057385;28;82641;-69
2023/01/10 09:22:05;;;;;;;8.15;2.65;;;23.60;48.90;;;;;;6072554;28;84418;-69
2023/01/10 09:25:05;;;;;;;5.65;3.10;;;23.60;48.80;;;;;;6092434;28;82025;-65
2023/01/10 09:28:06;;;;;;;7.13;3.08;;;23.60;48.80;;;;;;6088289;28;81612;-65
2023/01/10 09:31:07;;;;;;;3.47;2.17;;;23.60;48.90;;;;;;6095014;28;81660;-64
2023/01/10 09:34:08;;;;;;;5.90;2.88;;;23.60;48.70;;;;;;6083201;28;81802;-64
2023/01/10 09:37:08;;;;;;;3.13;2.40;;;23.50;48.70;;;;;;6086038;28;80528;-64
2023/01/10 09:40:09;;;;;;;5.65;3.40;;;23.50;48.70;;;;;;6095463;28;81461;-64
2023/01/10 09:43:09;;;;;;;4.53;2.70;;;23.50;48.80;;;;;;6089245;28;85260;-64
2023/01/10 09:46:10;;;;;;;6.78;2.90;;;23.50;48.80;;;;;;6099186;28;81013;-63
2023/01/10 09:49:11;;;;;;;5.93;2.90;;;23.50;49.00;;;;;;6093508;28;82575;-59
2023/01/10 09:52:11;;;;;;;7.57;3.05;;;23.50;48.90;;;;;;6101178;28;80721;-57
2023/01/10 09:55:12;;;;;;;8.02;3.28;;;23.50;48.90;;;;;;6076481;28;80927;-59
2023/01/10 09:58:12;;;;;;;7.75;2.75;;;23.50;49.10;;;;;;6085165;28;81494;-60
2023/01/10 10:01:13;;;;;;;7.45;3.70;;;23.50;49.10;;;;;;6081797;28;81462;-62
2023/01/10 10:04:13;;;;;;;9.30;2.88;;;23.50;49.30;;;;;;6085240;28;82561;-58
2023/01/10 10:07:14;;;;;;;4.95;2.60;;;23.50;49.50;;;;;;6095377;28;81843;-56
2023/01/10 10:10:15;;;;;;;6.05;2.50;;;23.50;49.20;;;;;;6100695;28;84370;-57
2023/01/10 10:13:15;;;;;;;6.22;2.70;;;23.50;49.80;;;;;;6089703;28;83461;-60
2023/01/10 10:16:16;;;;;;;10.38;3.08;;;23.50;49.70;;;;;;6098132;28;80577;-59
2023/01/10 10:19:16;;;;;;;6.10;2.85;;;23.50;49.70;;;;;;6067613;28;86781;-60
2023/01/10 10:22:17;;;;;;;7.43;3.38;;;23.50;49.60;;;;;;6066126;28;83458;-59
2023/01/10 10:25:17;;;;;;;4.35;2.72;;;23.50;49.30;;;;;;6084614;28;86777;-59
2023/01/10 10:28:18;;;;;;;5.32;3.40;;;23.50;49.00;;;;;;6056051;28;84240;-59
2023/01/10 10:31:20;;;;;;;5.45;3.58;;;23.40;48.60;;;;;;6063632;28;82047;-60
2023/01/10 10:34:21;;;;;;;5.90;3.45;;;23.30;48.40;;;;;;6064611;28;81192;-60
2023/01/10 10:37:21;;;;;;;5.22;3.40;;;23.40;48.00;;;;;;6064373;28;83098;-59
2023/01/10 10:40:22;;;;;;;6.80;3.58;;;23.40;47.30;;;;;;6095429;28;80893;-60
2023/01/10 10:43:24;;;;;;;4.82;3.20;;;23.40;47.00;;;;;;6099794;28;81423;-60
2023/01/10 10:46:24;;;;;;;12.82;5.28;;;23.40;47.00;;;;;;6076211;28;85908;-61
2023/01/10 10:49:25;;;;;;;12.65;4.70;;;23.40;47.30;;;;;;6085240;28;81258;-61
2023/01/10 10:52:26;;;;;;;12.85;5.25;;;23.40;47.20;;;;;;6084945;28;82419;-60
2023/01/10 10:55:26;;;;;;;11.07;4.28;;;23.50;47.20;;;;;;6089227;28;80892;-62
2023/01/10 10:58:29;;;;;;;14.02;4.80;;;23.50;47.20;;;;;;6071078;28;82545;-63
2023/01/10 11:01:30;;;;;;;10.85;4.40;;;23.60;47.20;;;;;;6073029;28;82918;-62
2023/01/10 11:04:30;;;;;;;15.52;5.15;;;23.60;47.30;;;;;;6068326;28;85280;-62
2023/01/10 11:07:32;;;;;;;8.25;4.22;;;23.70;48.10;;;;;;6089055;28;84000;-64
2023/01/10 11:10:35;;;;;;;9.40;4.32;;;23.70;48.10;;;;;;6068652;28;81569;-62
2023/01/10 11:13:36;;;;;;;12.02;4.63;;;23.70;48.10;;;;;;6078741;28;80527;-62
2023/01/10 11:16:37;;;;;;;9.80;4.35;;;23.70;48.10;;;;;;6082156;28;81815;-62
2023/01/10 11:19:38;;;;;;;10.20;4.47;;;23.80;48.20;;;;;;6080173;28;84369;-61
2023/01/10 11:22:38;;;;;;;11.45;4.43;;;23.80;48.40;;;;;;6087492;28;80877;-63
2023/01/10 11:25:39;;;;;;;9.55;4.20;;;23.80;48.30;;;;;;6084602;28;81698;-62
2023/01/10 11:28:39;;;;;;;15.38;4.53;;;23.90;48.50;;;;;;6077440;28;83204;-53
2023/01/10 11:31:40;;;;;;;10.52;4.22;;;23.90;48.70;;;;;;6080318;28;86872;-58
2023/01/10 11:34:40;;;;;;;8.40;4.15;;;23.90;49.40;;;;;;6076728;28;81051;-53
2023/01/10 11:37:41;;;;;;;8.40;3.85;;;24.00;49.40;;;;;;6050080;28;81661;-56
2023/01/10 11:40:41;;;;;;;7.03;3.65;;;24.00;49.30;;;;;;6072730;28;81173;-56
2023/01/10 11:43:42;;;;;;;9.43;3.67;;;24.00;49.50;;;;;;6103429;28;83664;-55
2023/01/10 11:46:42;;;;;;;8.40;4.28;;;24.00;49.70;;;;;;6085381;28;83825;-67
2023/01/10 11:49:43;;;;;;;7.55;3.60;;;24.00;49.60;;;;;;6079276;28;83028;-72
2023/01/10 11:52:43;;;;;;;6.65;3.97;;;24.00;49.30;;;;;;6086049;28;80603;-74
2023/01/10 11:55:44;;;;;;;7.22;3.45;;;24.00;49.10;;;;;;6087377;28;84649;-71
2023/01/10 11:58:45;;;;;;;7.25;3.53;;;24.00;48.80;;;;;;6072693;28;81782;-72
2023/01/10 12:01:45;;;;;;;8.60;4.07;;;24.00;48.80;;;;;;6075042;28;86005;-73
2023/01/10 12:04:46;;;;;;;5.70;2.80;;;24.00;48.80;;;;;;6065900;28;84083;-53
2023/01/10 12:07:47;;;;;;;6.93;3.40;;;24.00;48.60;;;;;;6068860;28;81807;-56
2023/01/10 12:10:47;;;;;;;12.15;4.32;;;24.00;49.30;;;;;;6083496;28;81122;-55
2023/01/10 12:13:48;;;;;;;6.72;3.05;;;23.90;49.40;;;;;;6085037;28;81387;-53
2023/01/10 12:16:48;;;;;;;5.93;2.50;;;23.90;49.50;;;;;;6079001;28;80752;-54
2023/01/10 12:19:51;;;;;;;5.05;2.78;;;23.90;49.40;;;;;;6068312;28;83831;-58
2023/01/10 12:22:52;;;;;;;6.65;2.72;;;23.90;49.10;;;;;;6086914;28;81184;-60
2023/01/10 12:25:53;;;;;;;4.43;2.65;;;23.90;48.90;;;;;;6087233;28;83713;-62
2023/01/10 12:28:56;;;;;;;4.90;2.45;;;23.90;48.90;;;;;;6053024;28;85412;-62
2023/01/10 12:31:56;;;;;;;5.38;2.63;;;23.80;49.60;;;;;;6064862;28;81718;-61
2023/01/10 12:34:57;;;;;;;4.35;2.40;;;23.80;50.00;;;;;;6064744;28;82139;-63
2023/01/10 12:37:57;;;;;;;3.45;2.10;;;23.80;50.50;;;;;;6097495;28;81363;-65
2023/01/10 12:40:58;;;;;;;5.68;2.50;;;23.90;50.30;;;;;;6079298;28;82596;-61
2023/01/10 12:44:11;;;;;;;4.90;2.45;;;23.80;50.20;;;;;;6084752;28;83596;-62
2023/01/10 12:47:11;;;;;;;3.33;2.30;;;23.80;50.50;;;;;;6081288;28;80639;-66
2023/01/10 12:50:12;;;;;;;3.65;2.13;;;23.80;50.10;;;;;;6057061;28;87339;-68
2023/01/10 12:53:13;;;;;;;6.82;2.55;;;23.90;50.10;;;;;;6083015;28;85504;-67
2023/01/10 12:56:13;;;;;;;9.63;2.67;;;23.80;49.50;;;;;;6087046;28;81337;-65
2023/01/10 12:59:14;;;;;;;7.65;2.60;;;23.80;49.80;;;;;;6088354;28;80598;-60
2023/01/10 13:02:14;;;;;;;4.50;2.45;;;23.80;49.50;;;;;;6088332;28;81436;-61
2023/01/10 13:05:15;;;;;;;6.40;2.30;;;23.80;49.50;;;;;;6094847;28;81194;-60
2023/01/10 13:08:17;;;;;;;4.15;2.47;;;23.80;49.10;;;;;;6091110;28;81450;-68
2023/01/10 13:11:17;;;;;;;5.30;2.63;;;23.80;49.10;;;;;;6083397;28;85538;-62
2023/01/10 13:14:18;;;;;;;5.82;2.60;;;23.80;49.60;;;;;;6096954;28;81453;-63
2023/01/10 13:17:18;;;;;;;4.15;2.10;;;23.80;49.30;;;;;;6079296;28;82943;-65
2023/01/10 13:20:19;;;;;;;5.28;2.83;;;23.70;49.10;;;;;;6075718;28;80936;-63
2023/01/10 13:23:19;;;;;;;5.15;2.25;;;23.70;48.90;;;;;;6077361;28;82458;-64
2023/01/10 13:26:20;;;;;;;2.85;2.10;;;23.70;49.30;;;;;;6078759;28;82537;-64
2023/01/10 13:29:20;;;;;;;10.73;2.60;;;23.70;49.20;;;;;;6103478;28;81033;-64
2023/01/10 13:32:21;;;;;;;7.70;2.28;;;23.70;49.60;;;;;;6104020;28;80540;-66
2023/01/10 13:35:21;;;;;;;6.57;2.80;;;23.70;49.40;;;;;;6081661;28;80652;-59
2023/01/10 13:38:22;;;;;;;6.28;2.60;;;23.70;49.50;;;;;;6088120;28;80613;-59
2023/01/10 13:44:42;;;;;;;8.07;2.38;;;23.70;49.40;;;;;;6093698;28;80406;-58
2023/01/10 13:47:43;;;;;;;9.25;2.75;;;23.70;49.30;;;;;;6083762;28;81213;-56
2023/01/10 13:50:45;;;;;;;6.55;2.45;;;23.70;49.40;;;;;;6089879;28;86057;-62
2023/01/10 13:53:47;;;;;;;6.25;2.35;;;23.70;49.20;;;;;;6078624;28;83003;-66
2023/01/10 13:56:47;;;;;;;10.10;3.13;;;23.70;49.10;;;;;;6084272;28;80836;-66
2023/01/10 14:03:08;;;;;;;8.48;3.00;;;23.60;48.90;;;;;;6093571;28;81183;-66
2023/01/10 14:06:08;;;;;;;7.53;3.15;;;23.60;49.10;;;;;;6113659;28;80071;-66
2023/01/10 14:09:09;;;;;;;35.58;9.05;;;23.60;49.10;;;;;;6102745;28;82670;-64
2023/01/10 14:12:09;;;;;;;48.45;10.70;;;23.60;49.10;;;;;;6092626;28;80905;-63
2023/01/10 14:15:10;;;;;;;44.65;9.43;;;23.60;48.90;;;;;;6092680;28;83867;-62
2023/01/10 14:18:10;;;;;;;41.78;8.93;;;23.60;49.20;;;;;;6080033;28;83003;-65
2023/01/10 14:21:11;;;;;;;43.95;10.65;;;23.60;49.30;;;;;;6112306;28;80887;-66
2023/01/10 14:24:11;;;;;;;47.80;10.77;;;23.60;50.20;;;;;;6104987;28;84761;-66
2023/01/10 14:27:12;;;;;;;49.05;12.82;;;23.60;50.90;;;;;;6103785;28;83425;-67
2023/01/10 14:30:12;;;;;;;46.90;12.90;;;23.60;51.30;;;;;;6103498;28;83432;-65
2023/01/10 14:33:13;;;;;;;50.83;13.07;;;23.60;52.40;;;;;;6100343;28;83311;-63
2023/01/10 14:36:13;;;;;;;56.88;14.95;;;23.60;53.00;;;;;;6092895;28;83508;-66
2023/01/10 14:39:14;;;;;;;52.85;13.85;;;23.60;53.40;;;;;;6079309;28;83312;-63
2023/01/10 14:42:15;;;;;;;61.50;15.25;;;23.60;54.20;;;;;;6081970;28;85028;-62
2023/01/10 14:45:16;;;;;;;48.15;13.52;;;23.60;53.80;;;;;;6090590;28;82971;-62
2023/01/10 14:48:17;;;;;;;49.22;13.38;;;23.60;53.80;;;;;;6097662;28;83952;-70
2023/01/10 14:51:19;;;;;;;44.75;11.45;;;23.60;53.20;;;;;;6092299;28;83557;-72
2023/01/10 14:54:22;;;;;;;43.22;11.57;;;23.60;53.00;;;;;;6095015;28;83291;-73
2023/01/10 14:57:23;;;;;;;40.67;11.63;;;23.60;52.80;;;;;;6087527;28;83778;-75
2023/01/10 15:00:23;;;;;;;38.05;11.05;;;23.60;52.70;;;;;;6082099;28;83049;-74
2023/01/10 15:03:24;;;;;;;31.73;11.20;;;23.70;52.50;;;;;;6082265;28;90845;-73
2023/01/10 15:06:24;;;;;;;34.50;10.77;;;23.60;52.20;;;;;;6090219;28;86209;-66
2023/01/10 15:09:25;;;;;;;34.45;10.20;;;23.70;52.20;;;;;;6087709;28;83095;-66
2023/01/10 15:12:25;;;;;;;26.90;8.98;;;23.70;51.70;;;;;;6086324;28;86646;-67
2023/01/10 15:15:27;;;;;;;30.67;8.38;;;23.70;52.20;;;;;;6094658;28;82900;-67
2023/01/10 15:18:27;;;;;;;24.65;8.43;;;23.70;51.10;;;;;;6103894;28;82796;-67
2023/01/10 15:21:28;;;;;;;27.85;8.20;;;23.70;50.90;;;;;;6105864;28;81592;-67
2023/01/10 15:24:28;;;;;;;28.52;8.65;;;23.70;50.90;;;;;;6092750;28;81809;-63
2023/01/10 15:27:29;;;;;;;26.60;8.40;;;23.70;50.60;;;;;;6097514;28;81050;-61
2023/01/10 15:30:30;;;;;;;23.63;7.38;;;23.70;50.40;;;;;;6085269;28;80748;-60
2023/01/10 15:33:31;;;;;;;24.80;6.90;;;23.70;50.20;;;;;;6084774;28;80461;-62
2023/01/10 15:36:32;;;;;;;23.25;7.32;;;23.70;50.00;;;;;;6108753;28;81810;-56
2023/01/10 15:39:32;;;;;;;21.15;7.45;;;23.70;50.20;;;;;;6098355;28;80451;-59
2023/01/10 15:42:34;;;;;;;24.30;7.65;;;23.70;50.10;;;;;;6102580;28;81213;-60
2023/01/10 15:45:37;;;;;;;23.83;7.00;;;23.70;50.10;;;;;;6110538;28;80252;-68
2023/01/10 15:48:38;;;;;;;25.40;7.90;;;23.70;50.00;;;;;;6091047;28;82082;-71